sensor_id;sensor_type;location;lat;lon;timestamp;P1;durP1;ratioP1;P2;durP2;ratioP2
1276;SDS011;631;51.024;13.826;2023-07-20T00:02:20;19.70;;;18.30;;
1276;SDS011;631;51.024;13.826;2023-07-20T00:04:46;18.70;;;17.40;;
1276;SDS011;631;51.024;13.826;2023-07-20T00:07:11;19.13;;;17.70;;
1276;SDS011;631;51.024;13.826;2023-07-20T00:09:37;17.97;;;16.87;;
1276;SDS011;631;51.024;13.826;2023-07-20T00:12:03;18.13;;;16.70;;
1276;SDS011;631;51.024;13.826;2023-07-20T00:14:28;18.53;;;17.20;;
1276;SDS011;631;51.024;13.826;2023-07-20T00:16:55;18.53;;;17.33;;
1276;SDS011;631;51.024;13.826;2023-07-20T00:19:22;18.37;;;16.93;;
1276;SDS011;631;51.024;13.826;2023-07-20T00:21:49;18.10;;;17.00;;
1276;SDS011;631;51.024;13.826;2023-07-20T00:24:14;17.90;;;16.60;;
1276;SDS011;631;51.024;13.826;2023-07-20T00:26:40;17.90;;;16.70;;
1276;SDS011;631;51.024;13.826;2023-07-20T00:29:05;18.60;;;17.40;;
1276;SDS011;631;51.024;13.826;2023-07-20T00:31:31;18.60;;;17.10;;
1276;SDS011;631;51.024;13.826;2023-07-20T00:33:57;18.77;;;17.40;;
1276;SDS011;631;51.024;13.826;2023-07-20T00:36:22;18.77;;;17.57;;
1276;SDS011;631;51.024;13.826;2023-07-20T00:38:48;18.60;;;17.50;;
1276;SDS011;631;51.024;13.826;2023-07-20T00:41:13;18.50;;;17.30;;
1276;SDS011;631;51.024;13.826;2023-07-20T00:43:39;17.97;;;16.87;;
1276;SDS011;631;51.024;13.826;2023-07-20T00:46:05;18.07;;;16.97;;
1276;SDS011;631;51.024;13.826;2023-07-20T00:48:32;18.47;;;17.37;;
1276;SDS011;631;51.024;13.826;2023-07-20T00:50:58;17.70;;;16.60;;
1276;SDS011;631;51.024;13.826;2023-07-20T00:53:25;17.73;;;16.73;;
1276;SDS011;631;51.024;13.826;2023-07-20T00:55:51;17.43;;;16.33;;
1276;SDS011;631;51.024;13.826;2023-07-20T00:58:17;17.80;;;16.70;;
1276;SDS011;631;51.024;13.826;2023-07-20T01:00:44;17.53;;;16.30;;
1276;SDS011;631;51.024;13.826;2023-07-20T01:03:09;16.77;;;15.87;;
1276;SDS011;631;51.024;13.826;2023-07-20T01:05:38;16.93;;;15.80;;
1276;SDS011;631;51.024;13.826;2023-07-20T01:11:47;16.13;;;15.13;;
1276;SDS011;631;51.024;13.826;2023-07-20T01:14:04;16.70;;;15.23;;
1276;SDS011;631;51.024;13.826;2023-07-20T01:16:30;16.17;;;15.17;;
1276;SDS011;631;51.024;13.826;2023-07-20T01:18:55;15.87;;;14.97;;
1276;SDS011;631;51.024;13.826;2023-07-20T01:21:24;15.60;;;14.70;;
1276;SDS011;631;51.024;13.826;2023-07-20T01:29:55;15.43;;;14.33;;
1276;SDS011;631;51.024;13.826;2023-07-20T01:32:43;15.40;;;14.40;;
1276;SDS011;631;51.024;13.826;2023-07-20T01:35:12;14.27;;;13.30;;
1276;SDS011;631;51.024;13.826;2023-07-20T01:37:39;14.40;;;13.60;;
1276;SDS011;631;51.024;13.826;2023-07-20T01:40:07;14.20;;;13.20;;
1276;SDS011;631;51.024;13.826;2023-07-20T01:42:34;13.70;;;13.00;;
1276;SDS011;631;51.024;13.826;2023-07-20T01:45:00;13.30;;;12.60;;
1276;SDS011;631;51.024;13.826;2023-07-20T01:47:26;13.20;;;12.50;;
1276;SDS011;631;51.024;13.826;2023-07-20T01:49:51;13.60;;;12.93;;
1276;SDS011;631;51.024;13.826;2023-07-20T01:52:17;13.97;;;13.17;;
1276;SDS011;631;51.024;13.826;2023-07-20T01:54:42;14.40;;;13.50;;
1276;SDS011;631;51.024;13.826;2023-07-20T01:57:08;14.33;;;13.63;;
1276;SDS011;631;51.024;13.826;2023-07-20T01:59:34;14.87;;;13.97;;
1276;SDS011;631;51.024;13.826;2023-07-20T02:01:59;15.27;;;14.13;;
1276;SDS011;631;51.024;13.826;2023-07-20T02:04:25;15.17;;;14.20;;
1276;SDS011;631;51.024;13.826;2023-07-20T02:06:50;14.80;;;13.80;;
1276;SDS011;631;51.024;13.826;2023-07-20T02:09:16;15.93;;;14.30;;
1276;SDS011;631;51.024;13.826;2023-07-20T02:11:42;14.90;;;13.90;;
1276;SDS011;631;51.024;13.826;2023-07-20T02:14:07;14.77;;;13.70;;
1276;SDS011;631;51.024;13.826;2023-07-20T02:16:33;15.27;;;14.37;;
1276;SDS011;631;51.024;13.826;2023-07-20T02:18:58;15.30;;;14.23;;
1276;SDS011;631;51.024;13.826;2023-07-20T02:21:24;15.23;;;14.23;;
1276;SDS011;631;51.024;13.826;2023-07-20T02:23:50;16.07;;;14.90;;
1276;SDS011;631;51.024;13.826;2023-07-20T02:26:15;16.60;;;15.40;;
1276;SDS011;631;51.024;13.826;2023-07-20T02:28:41;15.97;;;14.87;;
1276;SDS011;631;51.024;13.826;2023-07-20T02:31:07;16.70;;;15.50;;
1276;SDS011;631;51.024;13.826;2023-07-20T02:33:32;16.47;;;15.37;;
1276;SDS011;631;51.024;13.826;2023-07-20T02:35:58;15.80;;;14.90;;
1276;SDS011;631;51.024;13.826;2023-07-20T02:38:23;16.30;;;15.20;;
1276;SDS011;631;51.024;13.826;2023-07-20T02:40:49;16.43;;;15.27;;
1276;SDS011;631;51.024;13.826;2023-07-20T02:43:15;15.50;;;14.43;;
1276;SDS011;631;51.024;13.826;2023-07-20T02:45:41;15.20;;;14.23;;
1276;SDS011;631;51.024;13.826;2023-07-20T02:48:09;16.10;;;15.00;;
1276;SDS011;631;51.024;13.826;2023-07-20T02:50:35;15.87;;;14.90;;
1276;SDS011;631;51.024;13.826;2023-07-20T02:53:01;16.40;;;15.40;;
1276;SDS011;631;51.024;13.826;2023-07-20T02:55:27;16.80;;;15.30;;
1276;SDS011;631;51.024;13.826;2023-07-20T02:57:53;15.93;;;14.90;;
1276;SDS011;631;51.024;13.826;2023-07-20T03:00:18;17.00;;;15.90;;
1276;SDS011;631;51.024;13.826;2023-07-20T03:02:44;17.50;;;16.10;;
1276;SDS011;631;51.024;13.826;2023-07-20T03:05:12;17.03;;;15.73;;
1276;SDS011;631;51.024;13.826;2023-07-20T03:07:38;18.30;;;17.00;;
1276;SDS011;631;51.024;13.826;2023-07-20T03:10:04;17.23;;;16.10;;
1276;SDS011;631;51.024;13.826;2023-07-20T03:12:34;17.10;;;15.70;;
1276;SDS011;631;51.024;13.826;2023-07-20T03:14:59;18.30;;;17.00;;
1276;SDS011;631;51.024;13.826;2023-07-20T03:17:25;19.27;;;17.57;;
1276;SDS011;631;51.024;13.826;2023-07-20T03:19:51;18.90;;;17.40;;
1276;SDS011;631;51.024;13.826;2023-07-20T03:22:16;18.67;;;17.20;;
1276;SDS011;631;51.024;13.826;2023-07-20T03:24:42;18.90;;;17.47;;
1276;SDS011;631;51.024;13.826;2023-07-20T03:27:08;19.00;;;17.50;;
1276;SDS011;631;51.024;13.826;2023-07-20T03:29:33;19.00;;;17.70;;
1276;SDS011;631;51.024;13.826;2023-07-20T03:31:59;18.83;;;17.43;;
1276;SDS011;631;51.024;13.826;2023-07-20T03:34:25;18.77;;;17.47;;
1276;SDS011;631;51.024;13.826;2023-07-20T03:36:51;18.67;;;17.37;;
1276;SDS011;631;51.024;13.826;2023-07-20T03:39:16;17.93;;;16.73;;
1276;SDS011;631;51.024;13.826;2023-07-20T03:41:42;19.40;;;18.00;;
1276;SDS011;631;51.024;13.826;2023-07-20T03:44:08;18.73;;;17.43;;
1276;SDS011;631;51.024;13.826;2023-07-20T03:46:33;20.07;;;18.50;;
1276;SDS011;631;51.024;13.826;2023-07-20T03:48:59;19.30;;;17.83;;
1276;SDS011;631;51.024;13.826;2023-07-20T03:51:25;19.63;;;18.10;;
1276;SDS011;631;51.024;13.826;2023-07-20T03:53:51;19.40;;;18.00;;
1276;SDS011;631;51.024;13.826;2023-07-20T03:56:17;19.10;;;17.63;;
1276;SDS011;631;51.024;13.826;2023-07-20T03:58:42;18.40;;;17.10;;
1276;SDS011;631;51.024;13.826;2023-07-20T04:01:08;19.63;;;18.10;;
1276;SDS011;631;51.024;13.826;2023-07-20T04:03:34;18.33;;;17.03;;
1276;SDS011;631;51.024;13.826;2023-07-20T04:06:01;19.40;;;18.00;;
1276;SDS011;631;51.024;13.826;2023-07-20T04:08:27;18.70;;;17.30;;
1276;SDS011;631;51.024;13.826;2023-07-20T04:10:52;19.77;;;17.97;;
1276;SDS011;631;51.024;13.826;2023-07-20T04:13:18;18.60;;;17.30;;
1276;SDS011;631;51.024;13.826;2023-07-20T04:15:44;21.07;;;19.23;;
1276;SDS011;631;51.024;13.826;2023-07-20T04:18:09;19.20;;;17.80;;
1276;SDS011;631;51.024;13.826;2023-07-20T04:20:35;17.77;;;16.47;;
1276;SDS011;631;51.024;13.826;2023-07-20T04:23:01;18.20;;;17.00;;
1276;SDS011;631;51.024;13.826;2023-07-20T04:25:26;18.10;;;16.77;;
1276;SDS011;631;51.024;13.826;2023-07-20T04:27:52;19.00;;;17.50;;
1276;SDS011;631;51.024;13.826;2023-07-20T04:30:18;18.23;;;16.90;;
1276;SDS011;631;51.024;13.826;2023-07-20T04:32:48;18.33;;;17.10;;
1276;SDS011;631;51.024;13.826;2023-07-20T04:35:16;19.20;;;17.70;;
1276;SDS011;631;51.024;13.826;2023-07-20T04:37:43;18.10;;;16.77;;
1276;SDS011;631;51.024;13.826;2023-07-20T04:40:12;17.03;;;15.87;;
1276;SDS011;631;51.024;13.826;2023-07-20T04:42:40;18.13;;;16.83;;
1276;SDS011;631;51.024;13.826;2023-07-20T04:45:06;18.17;;;16.97;;
1276;SDS011;631;51.024;13.826;2023-07-20T04:47:32;17.83;;;16.73;;
1276;SDS011;631;51.024;13.826;2023-07-20T04:49:58;18.20;;;16.80;;
1276;SDS011;631;51.024;13.826;2023-07-20T04:52:23;18.37;;;17.23;;
1276;SDS011;631;51.024;13.826;2023-07-20T04:54:49;18.60;;;17.27;;
1276;SDS011;631;51.024;13.826;2023-07-20T04:57:14;19.07;;;17.77;;
1276;SDS011;631;51.024;13.826;2023-07-20T04:59:40;18.47;;;16.90;;
1276;SDS011;631;51.024;13.826;2023-07-20T05:02:06;18.23;;;16.87;;
1276;SDS011;631;51.024;13.826;2023-07-20T05:04:31;18.47;;;17.20;;
1276;SDS011;631;51.024;13.826;2023-07-20T05:06:57;19.60;;;18.20;;
1276;SDS011;631;51.024;13.826;2023-07-20T05:09:22;18.97;;;17.70;;
1276;SDS011;631;51.024;13.826;2023-07-20T05:11:48;19.73;;;18.43;;
1276;SDS011;631;51.024;13.826;2023-07-20T05:14:14;18.80;;;17.70;;
1276;SDS011;631;51.024;13.826;2023-07-20T05:16:39;20.47;;;18.83;;
1276;SDS011;631;51.024;13.826;2023-07-20T05:19:05;18.90;;;17.50;;
1276;SDS011;631;51.024;13.826;2023-07-20T05:21:31;18.73;;;17.40;;
1276;SDS011;631;51.024;13.826;2023-07-20T05:23:56;19.73;;;18.23;;
1276;SDS011;631;51.024;13.826;2023-07-20T05:26:22;19.00;;;17.70;;
1276;SDS011;631;51.024;13.826;2023-07-20T05:28:47;19.87;;;18.13;;
1276;SDS011;631;51.024;13.826;2023-07-20T05:31:13;19.33;;;17.77;;
1276;SDS011;631;51.024;13.826;2023-07-20T05:33:39;19.30;;;17.90;;
1276;SDS011;631;51.024;13.826;2023-07-20T05:36:04;19.37;;;17.67;;
1276;SDS011;631;51.024;13.826;2023-07-20T05:38:30;20.20;;;18.80;;
1276;SDS011;631;51.024;13.826;2023-07-20T05:40:58;17.97;;;16.70;;
1276;SDS011;631;51.024;13.826;2023-07-20T05:43:26;17.97;;;16.70;;
1276;SDS011;631;51.024;13.826;2023-07-20T05:45:52;19.20;;;17.70;;
1276;SDS011;631;51.024;13.826;2023-07-20T05:48:18;18.40;;;17.20;;
1276;SDS011;631;51.024;13.826;2023-07-20T05:50:44;18.47;;;16.87;;
1276;SDS011;631;51.024;13.826;2023-07-20T05:53:09;17.47;;;16.07;;
1276;SDS011;631;51.024;13.826;2023-07-20T05:55:35;19.37;;;17.80;;
1276;SDS011;631;51.024;13.826;2023-07-20T05:58:00;18.33;;;17.20;;
1276;SDS011;631;51.024;13.826;2023-07-20T06:00:26;18.13;;;16.93;;
1276;SDS011;631;51.024;13.826;2023-07-20T06:02:52;16.90;;;15.70;;
1276;SDS011;631;51.024;13.826;2023-07-20T06:05:19;17.13;;;15.70;;
1276;SDS011;631;51.024;13.826;2023-07-20T06:07:46;19.33;;;17.93;;
1276;SDS011;631;51.024;13.826;2023-07-20T06:10:12;18.67;;;17.37;;
1276;SDS011;631;51.024;13.826;2023-07-20T06:12:37;18.03;;;16.83;;
1276;SDS011;631;51.024;13.826;2023-07-20T06:15:03;20.30;;;18.80;;
1276;SDS011;631;51.024;13.826;2023-07-20T06:17:30;18.80;;;17.50;;
1276;SDS011;631;51.024;13.826;2023-07-20T06:19:56;18.53;;;17.23;;
1276;SDS011;631;51.024;13.826;2023-07-20T06:22:21;18.93;;;17.60;;
1276;SDS011;631;51.024;13.826;2023-07-20T06:24:47;19.40;;;18.00;;
1276;SDS011;631;51.024;13.826;2023-07-20T06:27:12;19.77;;;18.50;;
1276;SDS011;631;51.024;13.826;2023-07-20T06:29:38;19.10;;;17.90;;
1276;SDS011;631;51.024;13.826;2023-07-20T06:32:04;24.47;;;22.77;;
1276;SDS011;631;51.024;13.826;2023-07-20T06:34:30;28.17;;;25.87;;
1276;SDS011;631;51.024;13.826;2023-07-20T06:36:56;28.73;;;26.83;;
1276;SDS011;631;51.024;13.826;2023-07-20T06:39:21;28.77;;;25.97;;
1276;SDS011;631;51.024;13.826;2023-07-20T06:41:47;27.90;;;25.93;;
1276;SDS011;631;51.024;13.826;2023-07-20T06:44:13;26.90;;;24.90;;
1276;SDS011;631;51.024;13.826;2023-07-20T06:46:38;25.07;;;23.57;;
1276;SDS011;631;51.024;13.826;2023-07-20T06:49:06;26.07;;;23.77;;
1276;SDS011;631;51.024;13.826;2023-07-20T06:51:32;24.97;;;23.37;;
1276;SDS011;631;51.024;13.826;2023-07-20T06:53:58;23.33;;;21.50;;
1276;SDS011;631;51.024;13.826;2023-07-20T06:56:24;24.53;;;22.80;;
1276;SDS011;631;51.024;13.826;2023-07-20T06:58:49;26.00;;;24.03;;
1276;SDS011;631;51.024;13.826;2023-07-20T07:01:15;24.90;;;22.90;;
1276;SDS011;631;51.024;13.826;2023-07-20T07:03:41;26.17;;;24.03;;
1276;SDS011;631;51.024;13.826;2023-07-20T07:06:08;26.80;;;24.80;;
1276;SDS011;631;51.024;13.826;2023-07-20T07:08:35;27.90;;;25.60;;
1276;SDS011;631;51.024;13.826;2023-07-20T07:11:01;25.20;;;23.30;;
1276;SDS011;631;51.024;13.826;2023-07-20T07:13:26;26.03;;;24.03;;
1276;SDS011;631;51.024;13.826;2023-07-20T07:15:52;24.93;;;22.83;;
1276;SDS011;631;51.024;13.826;2023-07-20T07:18:18;24.57;;;22.77;;
1276;SDS011;631;51.024;13.826;2023-07-20T07:20:49;24.97;;;22.67;;
1276;SDS011;631;51.024;13.826;2023-07-20T07:23:16;23.70;;;21.70;;
1276;SDS011;631;51.024;13.826;2023-07-20T07:25:41;22.93;;;21.10;;
1276;SDS011;631;51.024;13.826;2023-07-20T07:28:07;21.27;;;19.77;;
1276;SDS011;631;51.024;13.826;2023-07-20T07:30:33;21.37;;;19.87;;
1276;SDS011;631;51.024;13.826;2023-07-20T07:32:58;21.77;;;20.37;;
1276;SDS011;631;51.024;13.826;2023-07-20T07:35:24;21.97;;;20.37;;
1276;SDS011;631;51.024;13.826;2023-07-20T07:37:49;21.17;;;19.87;;
1276;SDS011;631;51.024;13.826;2023-07-20T07:40:15;22.27;;;20.63;;
1276;SDS011;631;51.024;13.826;2023-07-20T07:42:41;21.87;;;20.37;;
1276;SDS011;631;51.024;13.826;2023-07-20T07:45:06;22.13;;;20.70;;
1276;SDS011;631;51.024;13.826;2023-07-20T07:47:32;22.67;;;20.87;;
1276;SDS011;631;51.024;13.826;2023-07-20T07:49:58;22.10;;;20.70;;
1276;SDS011;631;51.024;13.826;2023-07-20T07:52:23;23.60;;;22.00;;
1276;SDS011;631;51.024;13.826;2023-07-20T07:54:49;22.30;;;20.60;;
1276;SDS011;631;51.024;13.826;2023-07-20T07:57:15;21.00;;;19.60;;
1276;SDS011;631;51.024;13.826;2023-07-20T07:59:40;19.17;;;17.97;;
1276;SDS011;631;51.024;13.826;2023-07-20T08:02:06;18.90;;;17.80;;
1276;SDS011;631;51.024;13.826;2023-07-20T08:04:33;17.90;;;16.90;;
1276;SDS011;631;51.024;13.826;2023-07-20T08:06:59;17.10;;;16.10;;
1276;SDS011;631;51.024;13.826;2023-07-20T08:09:25;16.67;;;15.47;;
1276;SDS011;631;51.024;13.826;2023-07-20T08:11:50;17.20;;;16.03;;
1276;SDS011;631;51.024;13.826;2023-07-20T08:14:16;17.23;;;16.13;;
1276;SDS011;631;51.024;13.826;2023-07-20T08:16:41;16.87;;;15.77;;
1276;SDS011;631;51.024;13.826;2023-07-20T08:19:08;16.37;;;15.37;;
1276;SDS011;631;51.024;13.826;2023-07-20T08:21:33;16.10;;;15.20;;
1276;SDS011;631;51.024;13.826;2023-07-20T08:23:59;16.60;;;15.60;;
1276;SDS011;631;51.024;13.826;2023-07-20T08:26:25;17.00;;;16.00;;
1276;SDS011;631;51.024;13.826;2023-07-20T08:28:50;16.57;;;15.57;;
1276;SDS011;631;51.024;13.826;2023-07-20T08:31:16;17.77;;;16.77;;
1276;SDS011;631;51.024;13.826;2023-07-20T08:33:42;17.67;;;16.67;;
1276;SDS011;631;51.024;13.826;2023-07-20T08:36:08;18.37;;;17.23;;
1276;SDS011;631;51.024;13.826;2023-07-20T08:38:33;19.40;;;18.00;;
1276;SDS011;631;51.024;13.826;2023-07-20T08:40:59;18.20;;;17.10;;
1276;SDS011;631;51.024;13.826;2023-07-20T08:43:27;18.50;;;17.40;;
1276;SDS011;631;51.024;13.826;2023-07-20T08:45:55;18.17;;;16.97;;
1276;SDS011;631;51.024;13.826;2023-07-20T08:48:21;18.40;;;17.30;;
1276;SDS011;631;51.024;13.826;2023-07-20T08:50:52;17.60;;;16.60;;
1276;SDS011;631;51.024;13.826;2023-07-20T08:53:22;17.63;;;16.60;;
1276;SDS011;631;51.024;13.826;2023-07-20T08:55:48;17.73;;;16.63;;
1276;SDS011;631;51.024;13.826;2023-07-20T08:58:17;17.60;;;16.40;;
1276;SDS011;631;51.024;13.826;2023-07-20T09:00:43;18.90;;;17.70;;
1276;SDS011;631;51.024;13.826;2023-07-20T09:03:09;19.73;;;18.33;;
1276;SDS011;631;51.024;13.826;2023-07-20T09:05:36;18.67;;;17.47;;
1276;SDS011;631;51.024;13.826;2023-07-20T09:08:01;17.77;;;16.67;;
1276;SDS011;631;51.024;13.826;2023-07-20T09:10:30;17.00;;;16.10;;
1276;SDS011;631;51.024;13.826;2023-07-20T09:12:56;17.30;;;16.30;;
1276;SDS011;631;51.024;13.826;2023-07-20T09:15:22;16.53;;;15.50;;
1276;SDS011;631;51.024;13.826;2023-07-20T09:17:48;17.50;;;16.50;;
1276;SDS011;631;51.024;13.826;2023-07-20T09:20:15;15.97;;;15.07;;
1276;SDS011;631;51.024;13.826;2023-07-20T09:22:43;16.87;;;15.83;;
1276;SDS011;631;51.024;13.826;2023-07-20T09:25:13;16.67;;;15.77;;
1276;SDS011;631;51.024;13.826;2023-07-20T09:27:47;16.47;;;15.47;;
1276;SDS011;631;51.024;13.826;2023-07-20T09:30:14;16.27;;;15.27;;
1276;SDS011;631;51.024;13.826;2023-07-20T09:32:44;16.57;;;15.67;;
1276;SDS011;631;51.024;13.826;2023-07-20T09:35:19;16.73;;;15.77;;
1276;SDS011;631;51.024;13.826;2023-07-20T09:37:46;15.80;;;15.00;;
1276;SDS011;631;51.024;13.826;2023-07-20T09:40:14;16.83;;;16.03;;
1276;SDS011;631;51.024;13.826;2023-07-20T09:42:41;16.07;;;15.27;;
1276;SDS011;631;51.024;13.826;2023-07-20T09:45:07;15.33;;;14.63;;
1276;SDS011;631;51.024;13.826;2023-07-20T09:47:35;17.07;;;15.80;;
1276;SDS011;631;51.024;13.826;2023-07-20T09:50:03;16.20;;;15.40;;
1276;SDS011;631;51.024;13.826;2023-07-20T09:52:29;15.67;;;14.87;;
1276;SDS011;631;51.024;13.826;2023-07-20T09:54:55;15.07;;;14.23;;
1276;SDS011;631;51.024;13.826;2023-07-20T09:57:22;15.93;;;15.17;;
1276;SDS011;631;51.024;13.826;2023-07-20T09:59:48;14.83;;;14.13;;
1276;SDS011;631;51.024;13.826;2023-07-20T10:02:21;17.00;;;15.70;;
1276;SDS011;631;51.024;13.826;2023-07-20T10:04:51;15.90;;;15.10;;
1276;SDS011;631;51.024;13.826;2023-07-20T10:07:19;17.10;;;16.20;;
1276;SDS011;631;51.024;13.826;2023-07-20T10:09:48;16.93;;;16.03;;
1276;SDS011;631;51.024;13.826;2023-07-20T10:12:16;16.97;;;15.97;;
1276;SDS011;631;51.024;13.826;2023-07-20T10:14:48;17.27;;;16.37;;
1276;SDS011;631;51.024;13.826;2023-07-20T10:17:25;18.63;;;17.43;;
1276;SDS011;631;51.024;13.826;2023-07-20T10:19:51;19.20;;;17.93;;
1276;SDS011;631;51.024;13.826;2023-07-20T10:22:27;19.47;;;18.27;;
1276;SDS011;631;51.024;13.826;2023-07-20T10:24:59;15.50;;;14.60;;
1276;SDS011;631;51.024;13.826;2023-07-20T10:27:26;15.67;;;14.87;;
1276;SDS011;631;51.024;13.826;2023-07-20T10:29:52;15.80;;;14.90;;
1276;SDS011;631;51.024;13.826;2023-07-20T10:32:20;15.67;;;14.87;;
1276;SDS011;631;51.024;13.826;2023-07-20T10:34:50;15.37;;;14.57;;
1276;SDS011;631;51.024;13.826;2023-07-20T10:43:04;17.30;;;16.30;;
1276;SDS011;631;51.024;13.826;2023-07-20T10:45:39;17.13;;;16.10;;
1276;SDS011;631;51.024;13.826;2023-07-20T10:48:08;18.17;;;17.17;;
1276;SDS011;631;51.024;13.826;2023-07-20T10:53:44;18.83;;;17.73;;
1276;SDS011;631;51.024;13.826;2023-07-20T10:56:13;17.10;;;16.20;;
1276;SDS011;631;51.024;13.826;2023-07-20T10:58:44;17.10;;;16.20;;
1276;SDS011;631;51.024;13.826;2023-07-20T11:01:13;17.30;;;16.40;;
1276;SDS011;631;51.024;13.826;2023-07-20T11:03:40;16.80;;;15.73;;
1276;SDS011;631;51.024;13.826;2023-07-20T11:08:56;16.00;;;15.20;;
1276;SDS011;631;51.024;13.826;2023-07-20T11:14:04;15.20;;;14.40;;
1276;SDS011;631;51.024;13.826;2023-07-20T11:16:45;15.33;;;14.53;;
1276;SDS011;631;51.024;13.826;2023-07-20T11:19:16;15.70;;;14.90;;
1276;SDS011;631;51.024;13.826;2023-07-20T11:21:57;17.43;;;16.40;;
1276;SDS011;631;51.024;13.826;2023-07-20T11:24:23;17.27;;;16.37;;
1276;SDS011;631;51.024;13.826;2023-07-20T11:26:50;18.40;;;17.40;;
1276;SDS011;631;51.024;13.826;2023-07-20T11:29:20;19.07;;;17.87;;
1276;SDS011;631;51.024;13.826;2023-07-20T11:31:47;18.10;;;17.07;;
1276;SDS011;631;51.024;13.826;2023-07-20T11:34:17;19.60;;;18.50;;
1276;SDS011;631;51.024;13.826;2023-07-20T11:36:44;18.93;;;17.83;;
1276;SDS011;631;51.024;13.826;2023-07-20T11:39:12;19.23;;;18.20;;
1276;SDS011;631;51.024;13.826;2023-07-20T11:41:38;19.73;;;18.43;;
1276;SDS011;631;51.024;13.826;2023-07-20T11:44:09;18.13;;;17.00;;
1276;SDS011;631;51.024;13.826;2023-07-20T11:46:38;19.13;;;18.10;;
1276;SDS011;631;51.024;13.826;2023-07-20T11:49:04;18.50;;;17.40;;
1276;SDS011;631;51.024;13.826;2023-07-20T11:51:31;18.00;;;16.90;;
1276;SDS011;631;51.024;13.826;2023-07-20T11:53:57;16.60;;;15.70;;
1276;SDS011;631;51.024;13.826;2023-07-20T11:56:24;16.53;;;15.73;;
1276;SDS011;631;51.024;13.826;2023-07-20T11:58:50;15.33;;;14.43;;
1276;SDS011;631;51.024;13.826;2023-07-20T12:01:19;16.33;;;15.50;;
1276;SDS011;631;51.024;13.826;2023-07-20T12:03:45;16.40;;;15.50;;
1276;SDS011;631;51.024;13.826;2023-07-20T12:06:13;16.10;;;15.30;;
1276;SDS011;631;51.024;13.826;2023-07-20T12:08:39;15.40;;;14.60;;
1276;SDS011;631;51.024;13.826;2023-07-20T12:11:07;16.10;;;15.30;;
1276;SDS011;631;51.024;13.826;2023-07-20T12:13:36;15.40;;;14.60;;
1276;SDS011;631;51.024;13.826;2023-07-20T12:16:13;16.87;;;16.03;;
1276;SDS011;631;51.024;13.826;2023-07-20T12:18:40;16.30;;;15.50;;
1276;SDS011;631;51.024;13.826;2023-07-20T12:21:06;17.30;;;16.43;;
1276;SDS011;631;51.024;13.826;2023-07-20T12:23:39;15.80;;;15.00;;
1276;SDS011;631;51.024;13.826;2023-07-20T12:26:06;17.90;;;17.00;;
1276;SDS011;631;51.024;13.826;2023-07-20T12:28:35;17.50;;;16.60;;
1276;SDS011;631;51.024;13.826;2023-07-20T12:31:03;16.23;;;15.43;;
1276;SDS011;631;51.024;13.826;2023-07-20T12:33:29;19.03;;;17.93;;
1276;SDS011;631;51.024;13.826;2023-07-20T12:35:55;20.60;;;19.40;;
1276;SDS011;631;51.024;13.826;2023-07-20T12:38:23;22.10;;;20.77;;
1276;SDS011;631;51.024;13.826;2023-07-20T12:40:49;23.50;;;22.10;;
1276;SDS011;631;51.024;13.826;2023-07-20T12:43:14;23.70;;;22.30;;
1276;SDS011;631;51.024;13.826;2023-07-20T12:45:40;24.23;;;22.83;;
1276;SDS011;631;51.024;13.826;2023-07-20T12:48:06;22.90;;;21.50;;
1276;SDS011;631;51.024;13.826;2023-07-20T12:50:32;22.57;;;21.27;;
1276;SDS011;631;51.024;13.826;2023-07-20T12:52:57;21.80;;;20.47;;
1276;SDS011;631;51.024;13.826;2023-07-20T12:55:23;22.90;;;21.57;;
1276;SDS011;631;51.024;13.826;2023-07-20T12:57:48;22.50;;;21.00;;
1276;SDS011;631;51.024;13.826;2023-07-20T13:00:14;20.80;;;19.60;;
1276;SDS011;631;51.024;13.826;2023-07-20T13:02:41;20.80;;;19.50;;
1276;SDS011;631;51.024;13.826;2023-07-20T13:05:08;20.63;;;19.43;;
1276;SDS011;631;51.024;13.826;2023-07-20T13:07:35;19.73;;;18.53;;
1276;SDS011;631;51.024;13.826;2023-07-20T13:10:02;19.27;;;18.17;;
1276;SDS011;631;51.024;13.826;2023-07-20T13:12:29;18.17;;;17.17;;
1276;SDS011;631;51.024;13.826;2023-07-20T13:14:55;18.80;;;17.60;;
1276;SDS011;631;51.024;13.826;2023-07-20T13:17:24;17.00;;;16.00;;
1276;SDS011;631;51.024;13.826;2023-07-20T13:19:50;17.20;;;16.30;;
1276;SDS011;631;51.024;13.826;2023-07-20T13:22:16;17.53;;;16.57;;
1276;SDS011;631;51.024;13.826;2023-07-20T13:24:43;18.37;;;17.20;;
1276;SDS011;631;51.024;13.826;2023-07-20T13:27:10;18.07;;;17.07;;
1276;SDS011;631;51.024;13.826;2023-07-20T13:29:35;16.43;;;15.57;;
1276;SDS011;631;51.024;13.826;2023-07-20T13:32:02;16.10;;;15.23;;
1276;SDS011;631;51.024;13.826;2023-07-20T13:34:30;16.10;;;15.30;;
1276;SDS011;631;51.024;13.826;2023-07-20T13:36:55;15.00;;;14.20;;
1276;SDS011;631;51.024;13.826;2023-07-20T13:39:21;14.47;;;13.77;;
1276;SDS011;631;51.024;13.826;2023-07-20T13:41:49;15.30;;;14.50;;
1276;SDS011;631;51.024;13.826;2023-07-20T13:44:15;16.57;;;15.47;;
1276;SDS011;631;51.024;13.826;2023-07-20T13:46:40;15.13;;;14.33;;
1276;SDS011;631;51.024;13.826;2023-07-20T13:49:06;15.13;;;14.23;;
1276;SDS011;631;51.024;13.826;2023-07-20T13:51:31;15.70;;;14.90;;
1276;SDS011;631;51.024;13.826;2023-07-20T13:53:57;14.30;;;13.50;;
1276;SDS011;631;51.024;13.826;2023-07-20T13:56:23;15.10;;;14.30;;
1276;SDS011;631;51.024;13.826;2023-07-20T13:58:49;15.50;;;14.70;;
1276;SDS011;631;51.024;13.826;2023-07-20T14:01:15;14.20;;;13.40;;
1276;SDS011;631;51.024;13.826;2023-07-20T14:03:42;15.27;;;14.43;;
1276;SDS011;631;51.024;13.826;2023-07-20T14:06:08;15.50;;;14.70;;
1276;SDS011;631;51.024;13.826;2023-07-20T14:08:34;15.00;;;14.20;;
1276;SDS011;631;51.024;13.826;2023-07-20T14:11:00;14.70;;;14.00;;
1276;SDS011;631;51.024;13.826;2023-07-20T14:13:26;14.93;;;14.13;;
1276;SDS011;631;51.024;13.826;2023-07-20T14:15:52;13.77;;;13.07;;
1276;SDS011;631;51.024;13.826;2023-07-20T14:18:17;13.73;;;13.03;;
1276;SDS011;631;51.024;13.826;2023-07-20T14:20:43;14.07;;;13.37;;
1276;SDS011;631;51.024;13.826;2023-07-20T14:23:09;13.47;;;12.20;;
1276;SDS011;631;51.024;13.826;2023-07-20T14:25:35;13.10;;;12.40;;
1276;SDS011;631;51.024;13.826;2023-07-20T14:28:01;13.53;;;12.87;;
1276;SDS011;631;51.024;13.826;2023-07-20T14:30:26;13.57;;;12.88;;
1276;SDS011;631;51.024;13.826;2023-07-20T14:32:52;13.57;;;12.80;;
1276;SDS011;631;51.024;13.826;2023-07-20T14:35:18;13.20;;;12.60;;
1276;SDS011;631;51.024;13.826;2023-07-20T14:37:44;13.80;;;13.10;;
1276;SDS011;631;51.024;13.826;2023-07-20T14:40:12;13.80;;;13.17;;
1276;SDS011;631;51.024;13.826;2023-07-20T14:42:38;13.20;;;12.50;;
1276;SDS011;631;51.024;13.826;2023-07-20T14:45:04;12.60;;;12.00;;
1276;SDS011;631;51.024;13.826;2023-07-20T14:47:31;13.43;;;12.77;;
1276;SDS011;631;51.024;13.826;2023-07-20T14:50:03;11.60;;;11.10;;
1276;SDS011;631;51.024;13.826;2023-07-20T14:52:29;14.27;;;13.47;;
1276;SDS011;631;51.024;13.826;2023-07-20T14:54:55;13.60;;;12.90;;
1276;SDS011;631;51.024;13.826;2023-07-20T14:57:21;13.53;;;12.83;;
1276;SDS011;631;51.024;13.826;2023-07-20T14:59:48;13.10;;;12.50;;
1276;SDS011;631;51.024;13.826;2023-07-20T15:02:14;13.13;;;12.30;;
1276;SDS011;631;51.024;13.826;2023-07-20T15:04:50;13.40;;;12.80;;
1276;SDS011;631;51.024;13.826;2023-07-20T15:07:17;13.17;;;12.50;;
1276;SDS011;631;51.024;13.826;2023-07-20T15:09:44;12.70;;;12.10;;